createdAt,value
2022-08-07T00:12:00.135Z,937.4
2022-08-07T00:32:55.662Z,937.4
2022-08-07T00:48:52.729Z,937.2
2022-08-07T00:59:36.480Z,937.1
2022-08-07T01:10:12.944Z,936.9
2022-08-07T01:31:19.940Z,936.8
2022-08-07T01:36:58.210Z,936.8
2022-08-07T01:42:59.432Z,936.6
2022-08-07T02:03:51.748Z,936.6
2022-08-07T02:08:14.465Z,936.7
2022-08-07T02:18:51.551Z,936.7
2022-08-07T02:24:09.498Z,936.7
2022-08-07T02:29:23.278Z,936.7
2022-08-07T02:34:31.415Z,936.5
2022-08-07T02:56:22.172Z,936.5
2022-08-07T03:12:03.791Z,936.4
2022-08-07T03:22:30.842Z,936.4
2022-08-07T03:33:03.311Z,936.4
2022-08-07T03:55:08.193Z,936.3
2022-08-07T04:04:46.416Z,936.3
2022-08-07T04:10:03.362Z,936.3
2022-08-07T04:15:15.221Z,936.2
2022-08-07T04:32:11.222Z,936.2
2022-08-07T04:36:29.842Z,936.3
2022-08-07T04:41:51.023Z,936.4
2022-08-07T05:02:50.134Z,936.3
2022-08-07T05:24:06.471Z,936.4
2022-08-07T05:45:48.786Z,936.5
2022-08-07T06:01:14.929Z,936.7
2022-08-07T06:22:30.056Z,936.7
2022-08-07T06:44:11.271Z,936.6
2022-08-07T07:05:08.003Z,936.6
2022-08-07T07:26:40.775Z,936.6
2022-08-07T07:47:53.792Z,936.5
2022-08-07T08:09:01.246Z,936.7
2022-08-07T08:30:20.313Z,936.7
2022-08-07T08:52:19.340Z,936.7
2022-08-07T09:12:55.959Z,936.7
2022-08-07T09:34:06.253Z,936.8
2022-08-07T09:56:06.797Z,936.8
2022-08-07T10:16:45.475Z,936.7
2022-08-07T10:38:51.762Z,936.6
2022-08-07T10:48:35.792Z,936.5
2022-08-07T11:10:11.735Z,936.4
2022-08-07T11:31:00.819Z,936.5
2022-08-07T11:42:03.795Z,936.4
2022-08-07T12:02:54.171Z,936.3
2022-08-07T12:24:40.764Z,936.3
2022-08-07T12:45:26.509Z,936.1
2022-08-07T13:07:02.726Z,936.1
2022-08-07T13:28:25.912Z,936
2022-08-07T13:38:31.564Z,935.9
2022-08-07T13:59:45.854Z,935.9
2022-08-07T14:10:32.035Z,935.8
2022-08-07T14:31:59.648Z,935.9
2022-08-07T14:44:16.089Z,935.9
2022-08-07T15:15:23.266Z,935.9
2022-08-07T15:20:57.213Z,935.8
2022-08-07T15:42:52.234Z,935.8
2022-08-07T16:03:58.730Z,935.7
2022-08-07T16:14:03.704Z,935.6
2022-08-07T16:19:03.418Z,935.7
2022-08-07T16:30:33.905Z,935.6
2022-08-07T17:12:47.740Z,935.7
2022-08-07T17:22:43.178Z,935.7
2022-08-07T17:27:58.074Z,935.7
2022-08-07T17:35:56.146Z,935.8
2022-08-07T17:38:35.795Z,935.8
2022-08-07T17:44:50.229Z,935.8
2022-08-07T17:48:56.636Z,935.9
2022-08-07T18:04:50.595Z,936.1
2022-08-07T18:10:33.661Z,936.1
2022-08-07T18:15:17.628Z,936.3
2022-08-07T18:31:19.349Z,936.4
2022-08-07T18:53:14.213Z,936.4
2022-08-07T19:13:51.971Z,936.3
2022-08-07T19:32:46.252Z,936.4
2022-08-07T19:51:02.072Z,936.5
2022-08-07T20:06:57.679Z,936.4
2022-08-07T20:22:56.421Z,936.2
2022-08-07T20:33:39.387Z,936.3
2022-08-07T20:54:55.058Z,936.4
2022-08-07T21:05:58.484Z,936.5
2022-08-07T21:26:36.934Z,936.5
2022-08-07T21:37:08.318Z,936.6
2022-08-07T21:42:49.669Z,936.5
2022-08-07T21:52:54.901Z,936.6
2022-08-07T22:14:37.013Z,936.6
2022-08-07T22:24:45.384Z,936.5
2022-08-07T22:47:17.158Z,936.4
2022-08-07T22:56:44.367Z,936.3
2022-08-07T23:02:00.712Z,936.4
2022-08-07T23:24:11.307Z,936.4
2022-08-07T23:34:43.601Z,936.2
2022-08-07T23:49:53.189Z,936.2
